Time;durP1;ratioP1;P1;durP2;ratioP2;P2;SDS_P1;SDS_P2;PMS_P1;PMS_P2;Temp;Humidity;BMP_temperature;BMP_pressure;BME280_temperature;BME280_humidity;BME280_pressure;Samples;Min_cycle;Max_cycle;Signal;HPM_P1;HPM_P2
2022/01/10 05:02:38;;;;;;;15.00;10.67;;;4.50;99.90;;;;;;4958696;28;20515;-71
2022/01/10 05:05:06;;;;;;;12.67;10.37;;;4.50;99.90;;;;;;4959705;28;20812;-70
2022/01/10 05:07:33;;;;;;;16.33;9.67;;;4.50;99.90;;;;;;4959504;28;20455;-70
2022/01/10 05:09:59;;;;;;;15.07;9.80;;;4.50;99.90;;;;;;4959320;28;20953;-70
2022/01/10 05:12:28;;;;;;;14.73;10.10;;;4.50;99.90;;;;;;4959364;28;20563;-71
2022/01/10 05:14:55;;;;;;;13.40;9.77;;;4.50;99.90;;;;;;4959605;28;20459;-70
2022/01/10 05:17:24;;;;;;;12.60;9.60;;;4.50;99.90;;;;;;4959430;28;20483;-70
2022/01/10 05:19:52;;;;;;;13.03;10.23;;;4.50;99.90;;;;;;4958995;28;20531;-70
2022/01/10 05:22:19;;;;;;;11.30;10.13;;;4.50;99.90;;;;;;4958619;28;20486;-71
2022/01/10 05:24:45;;;;;;;15.83;11.13;;;4.50;99.90;;;;;;4958788;28;20452;-70
2022/01/10 05:27:12;;;;;;;12.37;10.60;;;4.50;99.90;;;;;;4959010;28;20455;-70
2022/01/10 05:29:39;;;;;;;16.43;11.60;;;4.50;99.90;;;;;;4959165;28;20467;-71
2022/01/10 05:32:06;;;;;;;14.10;11.80;;;4.50;99.90;;;;;;4960245;28;20484;-70
2022/01/10 05:34:33;;;;;;;17.83;11.13;;;4.40;99.90;;;;;;4959959;28;20452;-70
2022/01/10 05:37:01;;;;;;;21.60;12.00;;;4.40;99.90;;;;;;4958930;28;20480;-70
2022/01/10 05:39:27;;;;;;;17.63;12.97;;;4.40;99.90;;;;;;4959559;28;20452;-70
2022/01/10 05:41:54;;;;;;;15.60;11.17;;;4.50;99.90;;;;;;4957977;28;21010;-70
2022/01/10 05:44:21;;;;;;;17.30;12.07;;;4.50;99.90;;;;;;4958408;28;20456;-70
2022/01/10 05:46:48;;;;;;;19.90;12.23;;;4.40;99.90;;;;;;4959951;28;20455;-69
2022/01/10 05:49:18;;;;;;;15.00;10.27;;;4.40;99.90;;;;;;4959893;28;20550;-69
2022/01/10 05:51:49;;;;;;;14.87;12.33;;;4.60;99.90;;;;;;4964131;28;20578;-68
2022/01/10 05:54:17;;;;;;;14.17;11.07;;;5.10;99.90;;;;;;4960691;28;20460;-68
2022/01/10 05:56:44;;;;;;;11.03;9.97;;;5.40;99.90;;;;;;4960824;28;20511;-68
2022/01/10 05:59:10;;;;;;;13.50;10.80;;;5.60;99.90;;;;;;4960220;28;20467;-68
2022/01/10 06:01:37;;;;;;;11.37;9.77;;;5.60;99.90;;;;;;4960806;28;20484;-68
2022/01/10 06:04:04;;;;;;;14.63;10.70;;;5.80;99.90;;;;;;4960944;28;20456;-68
2022/01/10 06:06:31;;;;;;;16.20;10.83;;;5.80;99.90;;;;;;4959912;28;20484;-68
2022/01/10 06:08:58;;;;;;;12.27;10.90;;;5.80;99.90;;;;;;4960264;28;20515;-68
2022/01/10 06:11:26;;;;;;;16.30;10.97;;;5.90;99.90;;;;;;4960068;28;20479;-68
2022/01/10 06:13:53;;;;;;;15.23;12.30;;;6.00;99.90;;;;;;4959193;28;20468;-68
2022/01/10 06:16:20;;;;;;;12.33;10.10;;;5.90;99.90;;;;;;4958886;28;20491;-68
2022/01/10 06:18:46;;;;;;;12.40;9.60;;;5.90;99.90;;;;;;4958363;28;20459;-68
2022/01/10 06:21:13;;;;;;;16.50;11.60;;;5.80;99.90;;;;;;4958013;28;20487;-68
2022/01/10 06:23:40;;;;;;;15.13;12.27;;;5.80;99.90;;;;;;4958243;28;20542;-69
2022/01/10 06:26:07;;;;;;;15.03;11.17;;;5.70;99.90;;;;;;4958590;28;20459;-69
2022/01/10 06:28:35;;;;;;;15.93;11.30;;;5.60;99.90;;;;;;4957839;28;20463;-69
2022/01/10 06:31:02;;;;;;;26.57;12.50;;;5.60;99.90;;;;;;4958142;28;20482;-69
2022/01/10 06:33:29;;;;;;;16.57;12.43;;;5.50;99.90;;;;;;4958256;28;20464;-69
2022/01/10 06:35:55;;;;;;;18.17;12.63;;;5.30;99.90;;;;;;4957750;28;20464;-68
2022/01/10 06:38:22;;;;;;;20.60;12.70;;;5.20;99.90;;;;;;4971749;28;20452;-69
2022/01/10 06:40:49;;;;;;;22.23;12.80;;;5.10;99.90;;;;;;4966030;28;20476;-70
2022/01/10 06:43:16;;;;;;;17.37;12.77;;;5.10;99.90;;;;;;4958265;28;20823;-70
2022/01/10 06:45:44;;;;;;;19.93;13.43;;;5.00;99.90;;;;;;4958362;28;20460;-70
2022/01/10 06:48:11;;;;;;;19.63;11.40;;;4.90;99.90;;;;;;4958326;28;20467;-69
2022/01/10 06:50:38;;;;;;;25.73;13.23;;;4.80;99.90;;;;;;4958015;28;20483;-68
2022/01/10 06:53:06;;;;;;;15.40;12.17;;;4.80;99.90;;;;;;4957646;28;20451;-69
2022/01/10 06:55:33;;;;;;;14.17;12.67;;;4.80;99.90;;;;;;4957820;28;20493;-70
2022/01/10 06:58:00;;;;;;;13.73;11.80;;;4.70;99.90;;;;;;4961570;28;20488;-69
2022/01/10 07:00:27;;;;;;;20.30;13.50;;;4.60;99.90;;;;;;4974917;28;20432;-69
2022/01/10 07:02:55;;;;;;;20.20;14.43;;;4.60;99.90;;;;;;4968254;28;20440;-69
2022/01/10 07:05:21;;;;;;;18.63;14.80;;;4.50;99.90;;;;;;4960051;28;20641;-69
2022/01/10 07:07:48;;;;;;;17.03;14.13;;;4.30;99.90;;;;;;4958574;28;20456;-69
2022/01/10 07:10:15;;;;;;;21.40;14.60;;;4.40;99.90;;;;;;4958016;28;20471;-69
2022/01/10 07:12:41;;;;;;;25.23;14.63;;;4.40;99.90;;;;;;4957327;28;20926;-69
2022/01/10 07:15:09;;;;;;;20.13;15.40;;;4.30;99.90;;;;;;4956986;28;20459;-69
2022/01/10 07:17:36;;;;;;;24.60;14.23;;;4.20;99.90;;;;;;4956785;28;20483;-70
2022/01/10 07:20:06;;;;;;;18.60;13.73;;;4.10;99.90;;;;;;4956757;28;20455;-68
2022/01/10 07:22:33;;;;;;;21.10;14.33;;;4.10;99.90;;;;;;4956590;28;20476;-68
2022/01/10 07:24:59;;;;;;;24.17;15.83;;;4.10;99.90;;;;;;4957123;28;20865;-69
2022/01/10 07:27:26;;;;;;;20.87;14.20;;;4.10;99.90;;;;;;4956635;28;20857;-69
2022/01/10 07:29:53;;;;;;;17.30;14.00;;;4.10;99.90;;;;;;4956741;28;20459;-69
2022/01/10 07:32:20;;;;;;;23.37;16.80;;;4.00;99.90;;;;;;4956887;28;20475;-69
2022/01/10 07:34:47;;;;;;;25.23;15.73;;;3.90;99.90;;;;;;4957364;28;20460;-69
2022/01/10 07:37:18;;;;;;;23.63;14.57;;;4.00;99.90;;;;;;4957413;28;20484;-69
2022/01/10 07:39:44;;;;;;;21.87;17.30;;;4.00;99.90;;;;;;4957203;28;20504;-69
2022/01/10 07:42:11;;;;;;;23.90;15.13;;;4.00;99.90;;;;;;4956536;28;20475;-69
2022/01/10 07:44:38;;;;;;;23.67;14.20;;;4.00;99.90;;;;;;4956374;28;20966;-69
2022/01/10 07:47:05;;;;;;;20.47;14.50;;;4.00;99.90;;;;;;4956583;28;20452;-69
2022/01/10 07:49:32;;;;;;;16.63;13.57;;;4.00;99.90;;;;;;4955660;28;20983;-69
2022/01/10 07:51:58;;;;;;;21.10;14.23;;;4.10;99.90;;;;;;4956286;28;20488;-69
2022/01/10 07:54:27;;;;;;;19.80;14.13;;;4.00;99.90;;;;;;4956505;28;20459;-69
2022/01/10 07:56:54;;;;;;;18.80;14.33;;;4.00;99.90;;;;;;4957061;28;20490;-69
2022/01/10 07:59:22;;;;;;;24.27;14.93;;;4.00;99.90;;;;;;4956559;28;20463;-69
2022/01/10 08:01:49;;;;;;;19.40;15.47;;;4.00;99.90;;;;;;4956350;28;20860;-69
2022/01/10 08:04:16;;;;;;;25.60;16.37;;;4.10;99.90;;;;;;4956957;28;20494;-69
2022/01/10 08:06:43;;;;;;;17.30;13.70;;;4.10;99.90;;;;;;4956729;28;20456;-69
2022/01/10 08:09:09;;;;;;;17.70;12.40;;;4.00;99.90;;;;;;4956919;28;20817;-69
2022/01/10 08:11:38;;;;;;;25.43;16.30;;;4.10;99.90;;;;;;4956968;28;20479;-69
2022/01/10 08:14:05;;;;;;;22.23;14.73;;;4.10;99.90;;;;;;4956048;28;20460;-70
2022/01/10 08:16:32;;;;;;;17.30;13.30;;;4.10;99.90;;;;;;4956856;28;20476;-69
2022/01/10 08:18:59;;;;;;;19.80;14.90;;;4.00;99.90;;;;;;4956484;28;20466;-69
2022/01/10 08:21:26;;;;;;;22.07;16.30;;;4.00;99.90;;;;;;4955941;28;21003;-70
2022/01/10 08:23:52;;;;;;;24.97;15.87;;;4.10;99.90;;;;;;4956318;28;20452;-70
2022/01/10 08:26:20;;;;;;;26.00;18.30;;;4.10;99.90;;;;;;4956100;28;20970;-70
2022/01/10 08:28:48;;;;;;;27.23;15.90;;;4.10;99.90;;;;;;4956606;28;20471;-69
2022/01/10 08:31:16;;;;;;;31.70;16.80;;;4.20;99.90;;;;;;4956324;28;20519;-69
2022/01/10 08:33:45;;;;;;;26.43;18.17;;;4.20;99.90;;;;;;4956335;28;20581;-69
2022/01/10 08:36:12;;;;;;;26.30;18.23;;;4.20;99.90;;;;;;4958435;28;20460;-69
2022/01/10 08:38:39;;;;;;;26.17;18.80;;;4.20;99.90;;;;;;4960781;28;20816;-69
2022/01/10 08:41:06;;;;;;;26.27;19.10;;;4.30;99.90;;;;;;4955908;28;20479;-70
2022/01/10 08:43:33;;;;;;;31.77;21.73;;;4.20;99.90;;;;;;4956199;28;20463;-70
2022/01/10 08:46:01;;;;;;;30.53;21.10;;;4.20;99.90;;;;;;4955988;28;20456;-69
2022/01/10 08:48:28;;;;;;;28.40;21.00;;;4.30;99.90;;;;;;4955994;28;20460;-70
2022/01/10 08:50:54;;;;;;;33.33;22.07;;;4.30;99.90;;;;;;4956259;28;20475;-70
2022/01/10 08:53:21;;;;;;;28.57;19.60;;;4.30;99.90;;;;;;4957025;28;20463;-70
2022/01/10 08:55:48;;;;;;;30.00;20.70;;;4.40;99.90;;;;;;4957350;28;20823;-69
2022/01/10 08:58:15;;;;;;;26.63;18.30;;;4.50;99.90;;;;;;4956048;28;20995;-69
2022/01/10 09:00:41;;;;;;;23.10;17.27;;;4.50;99.90;;;;;;4959545;28;20487;-69
2022/01/10 09:03:10;;;;;;;27.37;19.27;;;4.50;99.90;;;;;;4960707;28;20459;-69
2022/01/10 09:05:37;;;;;;;25.83;16.90;;;4.50;99.90;;;;;;4959525;28;20981;-69
2022/01/10 09:08:04;;;;;;;24.87;18.53;;;4.60;99.90;;;;;;4959333;28;20954;-69
2022/01/10 09:10:31;;;;;;;31.70;20.40;;;4.50;99.90;;;;;;4959898;28;20546;-70
2022/01/10 09:12:58;;;;;;;27.30;19.37;;;4.50;99.90;;;;;;4959762;28;20448;-70
2022/01/10 09:15:25;;;;;;;25.93;18.97;;;4.60;99.90;;;;;;4959422;28;20463;-69
2022/01/10 09:17:51;;;;;;;28.57;19.23;;;4.80;99.90;;;;;;4959697;28;20476;-70
2022/01/10 09:20:20;;;;;;;23.30;19.60;;;4.90;99.90;;;;;;4959736;28;20459;-70
2022/01/10 09:22:46;;;;;;;27.57;17.97;;;4.80;99.90;;;;;;4959628;28;20455;-70
2022/01/10 09:25:13;;;;;;;24.40;19.13;;;4.90;99.90;;;;;;4958961;28;20791;-70
2022/01/10 09:27:42;;;;;;;26.20;18.13;;;5.00;99.90;;;;;;4959573;28;20463;-70
2022/01/10 09:30:10;;;;;;;21.80;17.40;;;5.10;99.90;;;;;;4958737;28;20884;-70
2022/01/10 09:32:37;;;;;;;24.30;17.13;;;5.20;99.90;;;;;;4958616;28;20480;-71
2022/01/10 09:35:04;;;;;;;22.10;16.00;;;5.30;99.90;;;;;;4958545;28;20833;-71
2022/01/10 09:37:32;;;;;;;24.77;17.30;;;5.20;99.90;;;;;;4959209;28;20480;-71
2022/01/10 09:39:59;;;;;;;24.03;15.40;;;5.20;99.90;;;;;;4959428;28;20467;-71
2022/01/10 09:42:26;;;;;;;22.90;16.43;;;5.20;99.90;;;;;;4963945;28;21002;-71
2022/01/10 09:44:53;;;;;;;20.90;16.60;;;5.00;99.90;;;;;;4959241;28;20460;-70
2022/01/10 09:47:20;;;;;;;23.77;16.60;;;5.00;99.90;;;;;;4960718;28;20507;-70
2022/01/10 09:49:47;;;;;;;28.17;17.97;;;5.00;99.90;;;;;;4959090;28;20433;-69
2022/01/10 09:52:16;;;;;;;25.80;15.87;;;5.10;99.90;;;;;;4960722;28;20482;-69
2022/01/10 09:54:44;;;;;;;26.97;18.03;;;5.20;99.90;;;;;;4959876;28;20452;-69
2022/01/10 09:57:11;;;;;;;30.20;18.10;;;5.20;99.90;;;;;;4960665;28;20471;-70
2022/01/10 09:59:40;;;;;;;25.30;17.33;;;5.30;99.90;;;;;;4959359;28;20456;-70
2022/01/10 10:02:08;;;;;;;20.57;16.37;;;5.40;99.90;;;;;;4971395;28;20575;-70
2022/01/10 10:04:37;;;;;;;27.87;17.13;;;5.40;99.90;;;;;;4976225;28;20448;-71
2022/01/10 10:07:05;;;;;;;19.53;17.47;;;5.40;99.90;;;;;;4968666;28;20790;-70
2022/01/10 10:09:32;;;;;;;23.33;16.70;;;5.50;99.90;;;;;;4960863;28;20444;-70
2022/01/10 10:12:01;;;;;;;30.67;16.93;;;5.60;99.90;;;;;;4958745;28;20486;-70
2022/01/10 10:14:28;;;;;;;22.60;15.43;;;5.60;99.90;;;;;;4959222;28;20444;-70
2022/01/10 10:16:57;;;;;;;19.87;13.27;;;5.70;99.90;;;;;;4958938;28;20460;-70
2022/01/10 10:19:26;;;;;;;16.17;12.93;;;6.00;99.90;;;;;;4959059;28;20873;-70
2022/01/10 10:21:55;;;;;;;19.10;14.40;;;6.10;99.90;;;;;;4960095;28;20476;-69
2022/01/10 10:24:23;;;;;;;18.53;14.53;;;6.20;99.90;;;;;;4960378;28;20819;-70
2022/01/10 10:26:52;;;;;;;29.80;15.47;;;6.50;99.90;;;;;;4963077;28;20819;-69
2022/01/10 10:29:20;;;;;;;20.43;14.53;;;6.70;99.90;;;;;;4959680;28;20865;-70
2022/01/10 10:31:49;;;;;;;16.73;14.93;;;6.80;99.90;;;;;;4959116;28;20472;-69
2022/01/10 10:34:21;;;;;;;21.87;15.47;;;7.00;99.90;;;;;;4960271;28;20464;-70
2022/01/10 10:37:01;;;;;;;21.73;14.83;;;7.30;99.90;;;;;;4961854;28;20935;-69
2022/01/10 10:39:29;;;;;;;19.13;14.23;;;7.30;99.90;;;;;;4959498;28;20436;-71
2022/01/10 10:41:56;;;;;;;23.60;15.00;;;8.30;99.90;;;;;;4958298;28;20476;-69
2022/01/10 10:44:24;;;;;;;20.23;15.27;;;8.90;99.90;;;;;;4958041;28;20456;-69
2022/01/10 10:46:52;;;;;;;18.97;14.20;;;9.10;99.90;;;;;;4959075;28;20452;-70
2022/01/10 10:49:20;;;;;;;20.00;15.20;;;9.40;99.90;;;;;;4959097;28;20959;-70
2022/01/10 10:51:50;;;;;;;21.87;14.60;;;9.00;99.90;;;;;;4959929;28;21009;-69
2022/01/10 10:54:19;;;;;;;19.03;15.00;;;8.80;99.90;;;;;;4961581;28;20456;-69
2022/01/10 10:56:47;;;;;;;21.53;14.63;;;8.40;99.90;;;;;;4959225;28;20507;-71
2022/01/10 10:59:15;;;;;;;24.17;15.53;;;8.20;99.90;;;;;;4959446;28;20809;-69
2022/01/10 11:01:43;;;;;;;16.93;13.33;;;7.80;99.90;;;;;;4959013;28;20551;-70
2022/01/10 11:04:14;;;;;;;19.40;15.10;;;7.80;99.90;;;;;;4959482;28;20974;-69
2022/01/10 11:06:44;;;;;;;27.63;14.63;;;7.70;99.90;;;;;;4961772;28;20459;-69
2022/01/10 11:09:13;;;;;;;18.90;12.73;;;7.70;99.90;;;;;;4960670;28;20507;-71
2022/01/10 11:11:41;;;;;;;15.17;13.33;;;7.80;99.90;;;;;;4958556;28;20479;-70
2022/01/10 11:14:11;;;;;;;19.53;12.73;;;7.90;99.90;;;;;;4960440;28;20460;-70
2022/01/10 11:16:42;;;;;;;17.00;12.43;;;8.00;99.90;;;;;;4959246;28;20868;-70
2022/01/10 11:19:14;;;;;;;22.20;13.67;;;8.10;99.90;;;;;;4959060;28;20470;-70
2022/01/10 11:21:45;;;;;;;20.77;12.83;;;8.10;99.90;;;;;;4958406;28;20472;-69
2022/01/10 11:24:33;;;;;;;18.20;12.17;;;8.20;99.90;;;;;;4958066;28;20445;-69
2022/01/10 11:27:00;;;;;;;15.70;12.40;;;8.20;99.90;;;;;;4958464;28;20467;-69
2022/01/10 11:29:30;;;;;;;14.37;11.60;;;8.20;99.90;;;;;;4957960;28;20452;-70
2022/01/10 11:31:56;;;;;;;20.07;13.53;;;8.20;99.90;;;;;;4957627;28;20476;-70
2022/01/10 11:34:28;;;;;;;18.27;12.93;;;8.20;99.90;;;;;;4958758;28;20472;-70
2022/01/10 11:36:58;;;;;;;22.70;14.23;;;7.90;99.90;;;;;;4959446;28;20841;-70
2022/01/10 11:39:37;;;;;;;14.80;12.50;;;7.80;99.90;;;;;;4958103;28;20484;-69
2022/01/10 11:42:21;;;;;;;18.00;13.77;;;7.50;99.90;;;;;;4960739;28;20480;-69
2022/01/10 11:45:09;;;;;;;20.97;14.90;;;7.10;99.90;;;;;;4959387;28;20444;-70
2022/01/10 11:48:15;;;;;;;18.37;12.73;;;7.00;99.90;;;;;;4956845;28;20432;-70
2022/01/10 11:50:46;;;;;;;16.73;12.60;;;6.90;99.90;;;;;;4956779;28;20530;-70
2022/01/10 11:53:16;;;;;;;18.37;13.30;;;6.80;99.90;;;;;;4957427;28;20475;-70
2022/01/10 11:55:45;;;;;;;16.70;12.20;;;6.70;99.90;;;;;;4957441;28;20452;-70
2022/01/10 11:58:17;;;;;;;18.10;13.63;;;6.70;99.90;;;;;;4957296;28;20480;-70
2022/01/10 12:00:44;;;;;;;18.60;14.70;;;6.70;99.90;;;;;;4956681;28;20484;-71
2022/01/10 12:03:11;;;;;;;17.00;12.47;;;6.50;99.90;;;;;;4956903;28;20935;-69
2022/01/10 12:05:39;;;;;;;20.73;14.47;;;6.60;99.90;;;;;;4957551;28;20460;-70
2022/01/10 12:08:08;;;;;;;22.60;14.70;;;6.60;99.90;;;;;;4956663;28;20452;-70
2022/01/10 12:10:35;;;;;;;17.93;13.97;;;6.70;99.90;;;;;;4956691;28;20503;-69
2022/01/10 12:13:05;;;;;;;21.73;15.20;;;6.60;99.90;;;;;;4955821;28;20499;-70
2022/01/10 12:15:33;;;;;;;18.93;15.67;;;6.60;99.90;;;;;;4956772;28;20451;-70
2022/01/10 12:18:01;;;;;;;21.63;15.03;;;6.60;99.90;;;;;;4956565;28;20487;-69
2022/01/10 12:20:27;;;;;;;22.20;15.70;;;6.40;99.90;;;;;;4956321;28;20456;-70
2022/01/10 12:22:54;;;;;;;20.30;13.87;;;6.40;99.90;;;;;;4956278;28;20971;-70
2022/01/10 12:25:24;;;;;;;20.93;13.90;;;6.30;99.90;;;;;;4956475;28;20455;-69
2022/01/10 12:27:53;;;;;;;16.63;13.07;;;6.40;99.90;;;;;;4957509;28;20460;-69
2022/01/10 12:30:21;;;;;;;19.07;13.20;;;6.60;99.90;;;;;;4958914;28;20539;-70
2022/01/10 12:32:48;;;;;;;22.00;13.47;;;6.70;99.90;;;;;;4957912;28;20457;-69
2022/01/10 12:35:16;;;;;;;15.07;12.30;;;6.80;99.90;;;;;;4958988;28;20487;-69
2022/01/10 12:37:43;;;;;;;21.40;12.10;;;7.00;99.90;;;;;;4960339;28;20471;-70
2022/01/10 12:40:13;;;;;;;20.33;12.03;;;7.00;99.90;;;;;;4961453;28;20456;-69
2022/01/10 12:42:46;;;;;;;13.90;12.00;;;7.10;99.90;;;;;;4961314;28;20459;-69
2022/01/10 12:45:13;;;;;;;20.87;13.77;;;7.10;99.90;;;;;;4960566;28;20809;-70
2022/01/10 12:47:45;;;;;;;20.67;14.60;;;7.20;99.90;;;;;;4961360;28;20817;-70
2022/01/10 12:50:15;;;;;;;16.47;13.37;;;7.10;99.90;;;;;;4962248;28;20439;-69
2022/01/10 12:52:43;;;;;;;17.30;12.67;;;7.20;99.90;;;;;;4960500;28;20535;-70
2022/01/10 12:55:10;;;;;;;19.97;13.00;;;7.30;99.90;;;;;;4961236;28;20460;-70
2022/01/10 12:57:39;;;;;;;22.17;13.93;;;7.40;99.90;;;;;;4961661;28;20456;-70
2022/01/10 13:00:10;;;;;;;19.77;13.47;;;7.40;99.90;;;;;;4961661;28;20471;-70
2022/01/10 13:02:37;;;;;;;21.70;14.10;;;7.40;99.90;;;;;;4960925;28;20464;-70
2022/01/10 13:05:07;;;;;;;19.37;12.80;;;7.40;99.90;;;;;;4965366;28;20459;-69
2022/01/10 13:07:36;;;;;;;17.80;12.67;;;7.20;99.90;;;;;;4966779;28;20446;-70
2022/01/10 13:10:11;;;;;;;13.10;11.80;;;7.10;99.90;;;;;;4963652;28;20539;-69
2022/01/10 13:12:57;;;;;;;20.67;12.73;;;7.10;99.90;;;;;;4967297;28;20482;-69
2022/01/10 13:15:33;;;;;;;20.90;13.40;;;7.00;99.90;;;;;;4966629;28;20456;-69
2022/01/10 13:18:02;;;;;;;17.70;12.47;;;7.00;99.90;;;;;;4963927;29;20483;-70
2022/01/10 13:20:32;;;;;;;16.83;13.90;;;7.00;99.90;;;;;;4965581;28;20546;-70
2022/01/10 13:23:02;;;;;;;16.97;11.83;;;7.10;99.90;;;;;;4965219;28;20498;-70
2022/01/10 13:25:35;;;;;;;18.57;12.47;;;7.10;99.90;;;;;;4962343;28;20814;-70
2022/01/10 13:28:07;;;;;;;17.60;12.63;;;7.20;99.90;;;;;;4964128;28;20539;-70
2022/01/10 13:30:40;;;;;;;15.50;11.83;;;7.10;99.90;;;;;;4963703;29;20463;-70
2022/01/10 13:33:08;;;;;;;21.10;12.80;;;7.00;99.90;;;;;;4966277;28;21035;-70
2022/01/10 13:35:37;;;;;;;18.20;13.40;;;6.90;99.90;;;;;;4961926;28;20465;-70
2022/01/10 13:38:11;;;;;;;15.53;12.50;;;6.60;99.90;;;;;;4964181;28;20468;-69
2022/01/10 13:40:44;;;;;;;18.63;12.40;;;6.70;99.90;;;;;;4964215;28;20535;-70
2022/01/10 13:43:13;;;;;;;15.87;12.30;;;6.80;99.90;;;;;;4964093;28;20448;-70
2022/01/10 13:45:48;;;;;;;16.43;11.67;;;6.70;99.90;;;;;;4965019;28;20547;-70
2022/01/10 13:48:19;;;;;;;18.73;13.57;;;6.60;99.90;;;;;;4966793;28;20435;-70
2022/01/10 13:50:49;;;;;;;15.30;12.10;;;6.60;99.90;;;;;;4964700;28;20468;-70
2022/01/10 13:53:19;;;;;;;17.13;13.43;;;6.80;99.90;;;;;;4963401;28;20464;-70
2022/01/10 13:56:05;;;;;;;20.17;13.60;;;6.70;99.90;;;;;;4964160;28;20987;-71
2022/01/10 13:58:34;;;;;;;19.80;13.33;;;6.70;99.90;;;;;;4964398;28;20472;-70
2022/01/10 14:01:09;;;;;;;24.73;13.63;;;6.70;99.90;;;;;;4963740;28;20496;-71
2022/01/10 14:03:36;;;;;;;19.83;13.93;;;6.60;99.90;;;;;;4965451;29;20858;-70
2022/01/10 14:06:18;;;;;;;16.60;14.03;;;6.60;99.90;;;;;;4965216;28;20456;-70
2022/01/10 14:08:47;;;;;;;20.07;13.00;;;6.50;99.90;;;;;;4965588;28;20472;-71
2022/01/10 14:11:15;;;;;;;21.47;14.10;;;6.30;99.90;;;;;;4961804;28;20486;-70
2022/01/10 14:13:43;;;;;;;19.37;12.00;;;6.30;99.90;;;;;;4963925;28;20948;-70
2022/01/10 14:16:12;;;;;;;19.60;11.50;;;6.20;99.90;;;;;;4964690;28;20463;-70
2022/01/10 14:18:43;;;;;;;19.00;12.30;;;6.20;99.90;;;;;;4962965;28;20575;-70
2022/01/10 14:21:11;;;;;;;17.73;12.87;;;6.20;99.90;;;;;;4964679;28;20540;-71
2022/01/10 14:23:39;;;;;;;16.87;13.33;;;6.30;99.90;;;;;;4964613;28;20452;-70
2022/01/10 14:26:07;;;;;;;18.87;13.00;;;6.30;99.90;;;;;;4962400;28;20466;-70
2022/01/10 14:28:36;;;;;;;19.00;12.73;;;6.40;99.90;;;;;;4962691;28;20459;-70
2022/01/10 14:31:03;;;;;;;25.40;13.20;;;6.40;99.90;;;;;;4963509;28;20479;-70
2022/01/10 14:33:31;;;;;;;19.20;13.00;;;6.40;99.90;;;;;;4964118;28;20456;-70
2022/01/10 14:35:58;;;;;;;22.40;15.37;;;6.40;99.90;;;;;;4963081;28;20547;-70
2022/01/10 14:38:28;;;;;;;21.60;14.53;;;6.40;99.90;;;;;;4961233;28;20484;-70
2022/01/10 14:40:56;;;;;;;16.57;13.10;;;6.30;99.90;;;;;;4961067;28;20515;-70
2022/01/10 14:43:22;;;;;;;17.53;14.10;;;6.20;99.90;;;;;;4960016;28;20475;-70
2022/01/10 14:45:49;;;;;;;23.27;14.73;;;6.20;99.90;;;;;;4964984;28;20460;-70
2022/01/10 14:48:16;;;;;;;23.70;13.60;;;6.30;99.90;;;;;;4960075;28;20484;-70
2022/01/10 14:50:45;;;;;;;22.67;14.27;;;6.30;99.90;;;;;;4962988;28;20479;-70
2022/01/10 14:53:14;;;;;;;21.80;15.33;;;6.30;99.90;;;;;;4961436;28;20453;-70
2022/01/10 14:55:43;;;;;;;23.00;14.07;;;6.30;99.90;;;;;;4958348;28;20757;-68
2022/01/10 14:58:11;;;;;;;19.33;16.37;;;6.30;99.90;;;;;;4958400;28;20462;-69
2022/01/10 15:00:38;;;;;;;24.93;15.27;;;6.20;99.90;;;;;;4958391;28;20539;-69
2022/01/10 15:03:05;;;;;;;23.00;16.90;;;6.10;99.90;;;;;;4957543;28;20440;-69
2022/01/10 15:05:31;;;;;;;21.70;16.50;;;6.20;99.90;;;;;;4957588;28;20452;-70
2022/01/10 15:08:00;;;;;;;21.90;15.10;;;6.30;99.90;;;;;;4957769;28;20451;-69
2022/01/10 15:10:27;;;;;;;20.50;15.07;;;6.30;99.90;;;;;;4957399;28;20452;-70
2022/01/10 15:12:53;;;;;;;19.60;14.80;;;6.20;99.90;;;;;;4957305;28;20448;-70
2022/01/10 15:15:20;;;;;;;22.03;16.40;;;6.20;99.90;;;;;;4958195;28;20452;-70
2022/01/10 15:17:49;;;;;;;23.33;16.47;;;6.10;99.90;;;;;;4957931;28;20951;-70
2022/01/10 15:20:18;;;;;;;22.50;16.67;;;6.10;99.90;;;;;;4957813;28;20491;-72
2022/01/10 15:22:45;;;;;;;21.37;16.17;;;6.10;99.90;;;;;;4959433;28;20467;-70
2022/01/10 15:25:13;;;;;;;23.77;18.63;;;6.10;99.90;;;;;;4957915;28;20492;-70
2022/01/10 15:27:40;;;;;;;24.47;16.90;;;6.00;99.90;;;;;;4958143;28;20464;-70
2022/01/10 15:30:10;;;;;;;23.87;17.97;;;5.90;99.90;;;;;;4957448;28;20827;-71
2022/01/10 15:32:36;;;;;;;27.50;17.97;;;5.80;99.90;;;;;;4957984;28;20476;-71
2022/01/10 15:35:10;;;;;;;25.07;17.33;;;5.70;99.90;;;;;;4957415;28;20924;-71
2022/01/10 15:37:37;;;;;;;28.17;17.40;;;5.60;99.90;;;;;;4957207;28;20436;-71
2022/01/10 15:40:07;;;;;;;30.93;17.43;;;5.60;99.90;;;;;;4957437;28;20488;-71
2022/01/10 15:42:37;;;;;;;22.90;17.27;;;5.50;99.90;;;;;;4961622;28;20480;-71
2022/01/10 15:45:05;;;;;;;25.63;16.70;;;5.40;99.90;;;;;;4959278;28;20444;-71
2022/01/10 15:47:32;;;;;;;24.53;18.13;;;5.40;99.90;;;;;;4958108;28;20464;-71
2022/01/10 15:49:59;;;;;;;32.23;17.93;;;5.40;99.90;;;;;;4958635;28;20452;-71
2022/01/10 15:52:26;;;;;;;27.83;19.00;;;5.30;99.90;;;;;;4957857;28;20479;-71
2022/01/10 15:54:53;;;;;;;30.40;19.10;;;5.30;99.90;;;;;;4958675;28;20870;-71
2022/01/10 15:57:20;;;;;;;29.10;18.30;;;5.20;99.90;;;;;;4957162;28;20477;-71
2022/01/10 15:59:49;;;;;;;29.67;18.17;;;5.20;99.90;;;;;;4957505;28;20490;-70
2022/01/10 16:02:15;;;;;;;26.03;18.87;;;5.10;99.90;;;;;;4957768;28;20559;-71
2022/01/10 16:04:43;;;;;;;25.20;18.40;;;5.10;99.90;;;;;;4957536;28;20459;-71
2022/01/10 16:07:11;;;;;;;27.93;18.87;;;5.00;99.90;;;;;;4958109;28;20967;-71
2022/01/10 16:09:38;;;;;;;27.30;19.50;;;5.00;99.90;;;;;;4957908;28;20995;-71
2022/01/10 16:12:06;;;;;;;30.67;18.40;;;4.90;99.90;;;;;;4958454;28;21041;-71
2022/01/10 16:14:36;;;;;;;26.20;17.37;;;4.90;99.90;;;;;;4959262;28;20452;-73
2022/01/10 16:17:05;;;;;;;26.13;18.57;;;4.80;99.90;;;;;;4961923;29;20432;-71
2022/01/10 16:19:32;;;;;;;28.20;18.33;;;4.80;99.90;;;;;;4958192;28;20487;-71
2022/01/10 16:21:59;;;;;;;29.90;19.90;;;4.70;99.90;;;;;;4957789;28;20484;-71
2022/01/10 16:24:25;;;;;;;34.37;24.73;;;4.70;99.90;;;;;;4957103;28;20460;-71
2022/01/10 16:26:53;;;;;;;29.83;20.93;;;4.60;99.90;;;;;;4957340;28;20451;-71
2022/01/10 16:29:20;;;;;;;36.80;22.20;;;4.70;99.90;;;;;;4956786;28;20463;-71
2022/01/10 16:31:48;;;;;;;30.80;19.77;;;4.60;99.90;;;;;;4956713;28;20484;-70
2022/01/10 16:34:16;;;;;;;31.77;21.20;;;4.60;99.90;;;;;;4956406;28;20888;-71
2022/01/10 16:36:44;;;;;;;32.47;20.47;;;4.60;99.90;;;;;;4956752;28;20456;-71
2022/01/10 16:39:11;;;;;;;28.77;20.93;;;4.70;99.90;;;;;;4956683;28;20483;-70
2022/01/10 16:41:38;;;;;;;26.00;19.50;;;4.70;99.90;;;;;;4956858;28;20486;-72
2022/01/10 16:44:05;;;;;;;24.23;19.80;;;4.70;99.90;;;;;;4956543;28;20460;-71
2022/01/10 16:46:33;;;;;;;36.97;22.90;;;4.70;99.90;;;;;;4956733;28;20467;-70
2022/01/10 16:48:59;;;;;;;34.63;25.33;;;4.70;99.90;;;;;;4956686;28;20507;-71
2022/01/10 16:51:27;;;;;;;34.73;22.93;;;4.60;99.90;;;;;;4956761;28;20971;-71
2022/01/10 16:53:55;;;;;;;33.10;22.50;;;4.60;99.90;;;;;;4956798;28;20445;-72
2022/01/10 16:56:21;;;;;;;37.80;22.50;;;4.50;99.90;;;;;;4957554;28;20544;-72
2022/01/10 16:58:48;;;;;;;34.63;22.70;;;4.50;99.90;;;;;;4956848;28;20943;-70
2022/01/10 17:01:15;;;;;;;32.23;20.83;;;4.50;99.90;;;;;;4955739;28;20495;-71
2022/01/10 17:03:42;;;;;;;29.63;21.10;;;4.50;99.90;;;;;;4956773;28;20466;-73
2022/01/10 17:06:09;;;;;;;33.30;22.20;;;4.50;99.90;;;;;;4957216;28;20456;-68
2022/01/10 17:08:38;;;;;;;32.50;23.03;;;4.50;99.90;;;;;;4956803;28;20478;-70
2022/01/10 17:11:05;;;;;;;33.63;21.23;;;4.50;99.90;;;;;;4956263;28;20471;-71
2022/01/10 17:13:32;;;;;;;30.47;20.07;;;4.40;99.90;;;;;;4956320;28;20908;-70
2022/01/10 17:16:01;;;;;;;32.20;20.00;;;4.30;99.90;;;;;;4956225;28;20460;-70
2022/01/10 17:18:27;;;;;;;31.43;22.23;;;4.30;99.90;;;;;;4956121;28;20471;-68
2022/01/10 17:20:54;;;;;;;28.30;19.80;;;4.30;99.90;;;;;;4957048;28;20491;-68
2022/01/10 17:23:21;;;;;;;30.60;19.07;;;4.30;99.90;;;;;;4959910;28;20463;-69
2022/01/10 17:25:49;;;;;;;28.80;20.70;;;4.30;99.90;;;;;;4960141;28;20463;-69
2022/01/10 17:28:16;;;;;;;30.80;20.30;;;4.20;99.90;;;;;;4959707;28;20463;-68
2022/01/10 17:30:43;;;;;;;27.97;20.00;;;4.20;99.90;;;;;;4959328;28;20472;-67
2022/01/10 17:33:09;;;;;;;30.73;21.70;;;4.20;99.90;;;;;;4959230;28;20444;-67
2022/01/10 17:35:38;;;;;;;29.97;20.53;;;4.10;99.90;;;;;;4960374;28;20497;-68
2022/01/10 17:38:05;;;;;;;28.43;21.03;;;4.10;99.90;;;;;;4965055;28;20456;-68
2022/01/10 17:40:32;;;;;;;33.00;20.20;;;4.10;99.90;;;;;;4965406;28;20479;-69
2022/01/10 17:43:02;;;;;;;37.13;21.03;;;4.10;99.90;;;;;;4961644;28;20452;-67
2022/01/10 17:45:28;;;;;;;31.90;20.37;;;4.00;99.90;;;;;;4962386;28;20479;-68